Time;durP1;ratioP1;P1;durP2;ratioP2;P2;SDS_P1;SDS_P2;PMS_P1;PMS_P2;Temp;Humidity;BMP_temperature;BMP_pressure;BME280_temperature;BME280_humidity;BME280_pressure;Samples;Min_cycle;Max_cycle;Signal;HPM_P1;HPM_P2
2021/08/06 00:00:21;;;;;;;0.10;0.10;;;;;;;;;;6188798;23;20521;-89
2021/08/06 00:02:47;;;;;;;0.20;0.20;;;;;;;;;;6188677;23;20008;-89
2021/08/06 00:05:13;;;;;;;0.17;0.17;;;;;;;;;;6188778;23;20064;-88
2021/08/06 00:07:39;;;;;;;0.10;0.10;;;;;;;;;;6188552;23;20016;-88
2021/08/06 00:10:06;;;;;;;0.10;0.10;;;;;;;;;;6215092;23;20023;-88
2021/08/06 00:12:32;;;;;;;0.20;0.20;;;;;;;;;;6188604;23;20019;-88
2021/08/06 00:14:58;;;;;;;0.10;0.10;;;;;;;;;;6188802;23;20020;-88
2021/08/06 00:17:24;;;;;;;0.10;0.10;;;;;;;;;;6188797;23;20062;-88
2021/08/06 00:19:50;;;;;;;0.10;0.10;;;;;;;;;;6213150;23;20040;-88
2021/08/06 00:22:19;;;;;;;0.10;0.10;;;;;;;;;;6189641;23;20013;-88
2021/08/06 00:24:45;;;;;;;0.10;0.10;;;;;;;;;;6215024;23;20508;-89
2021/08/06 00:27:11;;;;;;;0.10;0.10;;;;;;;;;;6188746;23;20013;-89
2021/08/06 00:29:37;;;;;;;0.20;0.20;;;;;;;;;;6188460;23;20016;-89
2021/08/06 00:32:03;;;;;;;0.10;0.10;;;;;;;;;;6188384;23;20012;-89
2021/08/06 00:34:29;;;;;;;0.30;0.30;;;;;;;;;;6181133;23;20024;-88
2021/08/06 00:36:55;;;;;;;0.10;0.10;;;;;;;;;;6158420;23;20017;-87
2021/08/06 00:39:21;;;;;;;0.10;0.10;;;;;;;;;;6158695;23;20399;-90
2021/08/06 00:41:47;;;;;;;0.30;0.30;;;;;;;;;;6158531;23;20013;-89
2021/08/06 00:44:13;;;;;;;0.10;0.10;;;;;;;;;;6158834;23;20013;-88
2021/08/06 00:46:39;;;;;;;0.10;0.10;;;;;;;;;;6158321;23;20017;-89
2021/08/06 00:49:05;;;;;;;0.10;0.10;;;;;;;;;;6158933;23;20009;-89
2021/08/06 00:51:31;;;;;;;0.15;0.15;;;;;;;;;;6158409;23;20461;-88
2021/08/06 00:53:57;;;;;;;0.10;0.10;;;;;;;;;;6158710;23;20083;-89
2021/08/06 00:56:24;;;;;;;0.10;0.10;;;;;;;;;;6159027;23;20013;-89
2021/08/06 00:58:50;;;;;;;0.10;0.10;;;;;;;;;;6158524;23;20013;-87
2021/08/06 01:01:16;;;;;;;0.10;0.10;;;;;;;;;;6158277;23;20383;-87
2021/08/06 01:03:42;;;;;;;0.20;0.20;;;;;;;;;;6158279;23;20013;-88
2021/08/06 01:06:21;;;;;;;0.30;0.30;;;;;;;;;;6183164;23;20096;-88
2021/08/06 01:08:48;;;;;;;0.10;0.10;;;;;;;;;;6158393;23;20313;-88
2021/08/06 01:11:14;;;;;;;0.10;0.10;;;;;;;;;;6158252;23;20040;-89
2021/08/06 01:13:42;;;;;;;0.10;0.10;;;;;;;;;;6158211;23;20044;-88
2021/08/06 01:16:08;;;;;;;0.17;0.17;;;;;;;;;;6158602;23;20394;-88
2021/08/06 01:18:34;;;;;;;0.10;0.10;;;;;;;;;;6158146;23;20040;-88
2021/08/06 01:21:04;;;;;;;0.10;0.10;;;;;;;;;;6158487;23;20009;-88
2021/08/06 01:23:35;;;;;;;0.10;0.10;;;;;;;;;;6168801;23;20518;-88
2021/08/06 01:26:06;;;;;;;0.30;0.30;;;;;;;;;;6158127;23;20019;-88
2021/08/06 01:28:33;;;;;;;0.10;0.10;;;;;;;;;;6158074;23;20021;-88
2021/08/06 01:30:59;;;;;;;0.10;0.10;;;;;;;;;;6184608;23;20009;-88
2021/08/06 01:33:25;;;;;;;0.10;0.10;;;;;;;;;;6158600;23;20388;-88
2021/08/06 01:35:51;;;;;;;0.10;0.10;;;;;;;;;;6158219;23;20013;-88
2021/08/06 01:38:17;;;;;;;0.40;0.40;;;;;;;;;;6158060;23;20091;-88
2021/08/06 01:41:11;;;;;;;0.10;0.10;;;;;;;;;;6158096;23;20020;-88
2021/08/06 01:43:48;;;;;;;0.20;0.20;;;;;;;;;;6194273;23;20020;-88
2021/08/06 01:46:19;;;;;;;0.10;0.10;;;;;;;;;;6158219;23;20019;-88
2021/08/06 01:48:46;;;;;;;0.13;0.13;;;;;;;;;;6157844;23;20027;-88
2021/08/06 01:51:12;;;;;;;0.10;0.10;;;;;;;;;;6158274;23;20177;-88
2021/08/06 01:53:39;;;;;;;0.10;0.10;;;;;;;;;;6158120;23;20147;-88
2021/08/06 01:56:06;;;;;;;0.20;0.20;;;;;;;;;;6158073;23;20107;-88
2021/08/06 01:58:32;;;;;;;0.10;0.10;;;;;;;;;;6159756;23;20013;-88
2021/08/06 02:00:58;;;;;;;0.10;0.10;;;;;;;;;;6160654;23;20016;-88
2021/08/06 02:03:24;;;;;;;0.10;0.10;;;;;;;;;;6160030;23;20033;-88
2021/08/06 02:05:51;;;;;;;0.22;0.20;;;;;;;;;;6135308;23;20008;-89
2021/08/06 02:08:17;;;;;;;0.20;0.20;;;;;;;;;;6159879;23;20017;-90
2021/08/06 02:10:43;;;;;;;0.10;0.10;;;;;;;;;;6160429;23;20466;-89
2021/08/06 02:13:10;;;;;;;0.20;0.20;;;;;;;;;;6184772;23;20017;-90
2021/08/06 02:15:36;;;;;;;0.17;0.17;;;;;;;;;;6160281;23;20013;-90
2021/08/06 02:18:02;;;;;;;0.65;0.65;;;;;;;;;;6160375;23;20079;-89
2021/08/06 02:20:28;;;;;;;0.10;0.10;;;;;;;;;;6160656;23;20016;-90
2021/08/06 02:22:54;;;;;;;0.10;0.10;;;;;;;;;;6160433;23;20466;-90
2021/08/06 02:25:22;;;;;;;0.20;0.20;;;;;;;;;;6160407;23;20332;-90
2021/08/06 02:27:48;;;;;;;0.30;0.30;;;;;;;;;;6160583;23;20083;-90
2021/08/06 02:30:14;;;;;;;0.15;0.10;;;;;;;;;;6160134;23;20020;-91
2021/08/06 02:32:40;;;;;;;0.30;0.30;;;;;;;;;;6159997;23;20017;-91
2021/08/06 02:35:06;;;;;;;0.10;0.10;;;;;;;;;;6160164;23;20023;-90
2021/08/06 02:37:37;;;;;;;0.45;0.45;;;;;;;;;;6160414;23;20016;-90
2021/08/06 02:40:04;;;;;;;0.10;0.10;;;;;;;;;;6171008;23;20009;-91
2021/08/06 02:42:32;;;;;;;0.13;0.13;;;;;;;;;;6160548;23;20052;-91
2021/08/06 02:44:58;;;;;;;0.20;0.20;;;;;;;;;;6160107;23;20444;-90
2021/08/06 02:47:24;;;;;;;0.10;0.10;;;;;;;;;;6160047;23;20013;-90
2021/08/06 02:49:50;;;;;;;0.28;0.28;;;;;;;;;;6160202;23;20020;-90
2021/08/06 02:52:16;;;;;;;0.20;0.20;;;;;;;;;;6160064;23;20458;-90
2021/08/06 02:54:42;;;;;;;0.10;0.10;;;;;;;;;;6159841;23;20016;-89
2021/08/06 02:57:08;;;;;;;0.10;0.10;;;;;;;;;;6159783;23;20009;-90
2021/08/06 02:59:34;;;;;;;0.10;0.10;;;;;;;;;;6160191;23;20040;-91
2021/08/06 03:02:00;;;;;;;0.10;0.10;;;;;;;;;;6160173;23;20019;-90
2021/08/06 03:04:26;;;;;;;0.10;0.10;;;;;;;;;;6159510;23;20052;-89
2021/08/06 03:06:52;;;;;;;0.10;0.10;;;;;;;;;;6159933;23;20020;-92
2021/08/06 03:09:18;;;;;;;0.25;0.25;;;;;;;;;;6159260;23;20021;-90
2021/08/06 03:11:44;;;;;;;0.15;0.15;;;;;;;;;;6159486;23;20017;-90
2021/08/06 03:14:10;;;;;;;0.10;0.10;;;;;;;;;;6159808;23;20019;-88
2021/08/06 03:16:36;;;;;;;0.10;0.10;;;;;;;;;;6159669;23;20023;-89
2021/08/06 03:19:02;;;;;;;0.10;0.10;;;;;;;;;;6160128;23;20411;-88
2021/08/06 03:21:28;;;;;;;0.10;0.10;;;;;;;;;;6159772;23;20008;-90
2021/08/06 03:23:54;;;;;;;0.20;0.20;;;;;;;;;;6159429;23;20144;-89
2021/08/06 03:26:21;;;;;;;0.10;0.10;;;;;;;;;;6159829;23;20013;-89
2021/08/06 03:28:47;;;;;;;0.10;0.10;;;;;;;;;;6159526;23;20063;-88
2021/08/06 03:31:13;;;;;;;0.20;0.20;;;;;;;;;;6159525;23;20013;-88
2021/08/06 03:33:39;;;;;;;0.13;0.13;;;;;;;;;;6159521;23;20451;-88
2021/08/06 03:36:07;;;;;;;0.10;0.10;;;;;;;;;;6183766;23;20028;-88
2021/08/06 03:38:33;;;;;;;0.20;0.20;;;;;;;;;;6159440;23;20451;-88
2021/08/06 03:40:59;;;;;;;0.10;0.10;;;;;;;;;;6159592;23;20009;-89
2021/08/06 03:43:25;;;;;;;0.25;0.25;;;;;;;;;;6159170;23;20072;-89
2021/08/06 03:45:51;;;;;;;0.10;0.10;;;;;;;;;;6159063;23;20395;-89
2021/08/06 03:48:17;;;;;;;0.10;0.10;;;;;;;;;;6159299;23;20013;-89
2021/08/06 03:50:43;;;;;;;0.25;0.25;;;;;;;;;;6185405;23;20039;-88
2021/08/06 03:53:09;;;;;;;0.10;0.10;;;;;;;;;;6159086;23;20036;-89
2021/08/06 03:55:36;;;;;;;0.10;0.10;;;;;;;;;;6159376;23;20088;-88
2021/08/06 03:58:03;;;;;;;0.22;0.22;;;;;;;;;;6159275;23;20040;-89
2021/08/06 04:00:29;;;;;;;0.10;0.10;;;;;;;;;;6159205;23;20017;-89
2021/08/06 04:02:55;;;;;;;0.20;0.20;;;;;;;;;;6159023;23;20017;-89
2021/08/06 04:05:21;;;;;;;0.20;0.20;;;;;;;;;;6159019;23;20347;-88
2021/08/06 04:07:48;;;;;;;0.20;0.20;;;;;;;;;;6158825;23;20017;-88
2021/08/06 04:10:18;;;;;;;0.20;0.20;;;;;;;;;;6158903;23;20013;-88
2021/08/06 04:12:46;;;;;;;0.10;0.10;;;;;;;;;;6159315;23;20035;-88
2021/08/06 04:15:12;;;;;;;0.10;0.10;;;;;;;;;;6159141;23;20547;-87
2021/08/06 04:17:39;;;;;;;0.40;0.40;;;;;;;;;;6158802;23;20019;-88
2021/08/06 04:20:05;;;;;;;0.10;0.10;;;;;;;;;;6158908;23;20092;-89
2021/08/06 04:22:33;;;;;;;0.20;0.20;;;;;;;;;;6159247;23;20009;-88
2021/08/06 04:24:59;;;;;;;0.20;0.20;;;;;;;;;;6158994;23;20024;-89
2021/08/06 04:27:26;;;;;;;0.10;0.10;;;;;;;;;;6158891;23;20017;-88
2021/08/06 04:29:54;;;;;;;0.13;0.13;;;;;;;;;;6159178;23;20013;-88
2021/08/06 04:32:20;;;;;;;0.10;0.10;;;;;;;;;;6133830;23;20343;-88
2021/08/06 04:34:46;;;;;;;0.10;0.10;;;;;;;;;;6159647;23;20048;-90
2021/08/06 04:37:12;;;;;;;0.30;0.10;;;;;;;;;;6158926;23;20017;-88
2021/08/06 04:39:38;;;;;;;0.13;0.13;;;;;;;;;;6159174;23;20013;-87
2021/08/06 04:42:06;;;;;;;0.20;0.20;;;;;;;;;;6159192;23;20013;-88
2021/08/06 04:44:36;;;;;;;0.13;0.13;;;;;;;;;;6158768;23;20359;-89
2021/08/06 04:47:02;;;;;;;0.10;0.10;;;;;;;;;;6159572;23;20017;-89
2021/08/06 04:49:33;;;;;;;0.17;0.17;;;;;;;;;;6169642;23;20013;-88
2021/08/06 04:51:59;;;;;;;0.10;0.10;;;;;;;;;;6158798;23;20013;-90
2021/08/06 04:54:27;;;;;;;0.20;0.20;;;;;;;;;;6159315;23;20087;-91
2021/08/06 04:56:54;;;;;;;0.10;0.10;;;;;;;;;;6158793;23;20012;-90
2021/08/06 04:59:20;;;;;;;0.10;0.10;;;;;;;;;;6134196;23;20068;-90
2021/08/06 05:01:46;;;;;;;0.20;0.20;;;;;;;;;;6158779;23;20088;-90
2021/08/06 05:04:12;;;;;;;0.10;0.10;;;;;;;;;;6158547;23;20033;-89
2021/08/06 05:06:38;;;;;;;0.10;0.10;;;;;;;;;;6158808;23;20336;-90
2021/08/06 05:09:04;;;;;;;0.10;0.10;;;;;;;;;;6158537;23;20398;-90
2021/08/06 05:11:31;;;;;;;0.10;0.10;;;;;;;;;;6158884;23;20088;-90
2021/08/06 05:13:57;;;;;;;0.20;0.20;;;;;;;;;;6158989;23;20031;-91
2021/08/06 05:16:23;;;;;;;0.10;0.10;;;;;;;;;;6134195;23;20380;-90
2021/08/06 05:18:49;;;;;;;0.10;0.10;;;;;;;;;;6133816;23;20061;-90
2021/08/06 05:21:15;;;;;;;0.20;0.20;;;;;;;;;;6134043;23;20062;-90
2021/08/06 05:23:41;;;;;;;0.35;0.35;;;;;;;;;;6159021;23;20328;-91
2021/08/06 05:26:07;;;;;;;0.20;0.20;;;;;;;;;;6158975;23;20017;-90
2021/08/06 05:28:34;;;;;;;0.20;0.20;;;;;;;;;;6158626;23;20024;-91
2021/08/06 05:31:00;;;;;;;0.20;0.20;;;;;;;;;;6158471;23;20013;-91
2021/08/06 05:33:26;;;;;;;0.17;0.17;;;;;;;;;;6133261;23;20447;-90
2021/08/06 05:35:52;;;;;;;0.15;0.15;;;;;;;;;;6158029;23;20079;-90
2021/08/06 05:38:20;;;;;;;0.70;0.30;;;;;;;;;;6158376;23;20379;-90
2021/08/06 05:40:46;;;;;;;0.10;0.10;;;;;;;;;;6158115;23;20447;-90
2021/08/06 05:43:13;;;;;;;0.10;0.10;;;;;;;;;;6158750;23;20328;-90
2021/08/06 05:45:40;;;;;;;0.10;0.10;;;;;;;;;;6158609;23;20060;-89
2021/08/06 05:48:08;;;;;;;0.10;0.10;;;;;;;;;;6157583;23;20044;-90
2021/08/06 05:50:37;;;;;;;0.20;0.20;;;;;;;;;;6158478;23;20016;-89
2021/08/06 05:53:03;;;;;;;0.10;0.10;;;;;;;;;;6133520;23;20040;-90
2021/08/06 05:55:29;;;;;;;0.10;0.10;;;;;;;;;;6158777;23;20017;-92
2021/08/06 05:57:55;;;;;;;0.13;0.13;;;;;;;;;;6157587;23;20017;-91
2021/08/06 06:00:22;;;;;;;0.20;0.20;;;;;;;;;;6158431;23;20009;-90
2021/08/06 06:02:48;;;;;;;0.20;0.20;;;;;;;;;;6158130;23;20114;-89
2021/08/06 06:05:14;;;;;;;0.10;0.10;;;;;;;;;;6157726;23;20013;-90
2021/08/06 06:07:47;;;;;;;0.20;0.20;;;;;;;;;;6158270;23;20021;-88
2021/08/06 06:10:14;;;;;;;0.20;0.20;;;;;;;;;;6158184;23;20029;-88
2021/08/06 06:12:40;;;;;;;0.20;0.20;;;;;;;;;;6158317;23;20057;-88
2021/08/06 06:15:07;;;;;;;0.10;0.10;;;;;;;;;;6158216;23;20017;-90
2021/08/06 06:17:33;;;;;;;0.10;0.10;;;;;;;;;;6133077;23;20024;-89
2021/08/06 06:19:59;;;;;;;0.20;0.20;;;;;;;;;;6157661;23;20021;-89
2021/08/06 06:22:28;;;;;;;0.10;0.10;;;;;;;;;;6158760;23;20436;-91
2021/08/06 06:24:54;;;;;;;0.10;0.10;;;;;;;;;;6158196;23;20013;-91
2021/08/06 06:27:20;;;;;;;0.15;0.15;;;;;;;;;;6157769;23;20203;-90
2021/08/06 06:29:48;;;;;;;0.10;0.10;;;;;;;;;;6158356;23;20092;-91
2021/08/06 06:32:14;;;;;;;0.10;0.10;;;;;;;;;;6158665;23;20009;-91
2021/08/06 06:34:40;;;;;;;0.10;0.10;;;;;;;;;;6157976;23;20017;-90
2021/08/06 06:37:06;;;;;;;0.30;0.30;;;;;;;;;;6158394;23;20017;-91
2021/08/06 06:39:32;;;;;;;0.10;0.10;;;;;;;;;;6158113;23;20138;-92
2021/08/06 06:42:24;;;;;;;0.20;0.20;;;;;;;;;;6164770;23;20021;-96
2021/08/06 06:44:59;;;;;;;0.10;0.10;;;;;;;;;;6136775;23;20451;-95
2021/08/06 06:47:42;;;;;;;0.10;0.10;;;;;;;;;;6171609;23;20016;-96
2021/08/06 06:50:09;;;;;;;0.10;0.10;;;;;;;;;;6138977;23;20092;-90
2021/08/06 06:52:36;;;;;;;0.10;0.10;;;;;;;;;;6159818;23;20462;-90
2021/08/06 06:55:02;;;;;;;0.10;0.10;;;;;;;;;;6162903;23;20175;-89
2021/08/06 06:57:28;;;;;;;0.10;0.10;;;;;;;;;;6159583;23;20067;-86
2021/08/06 06:59:55;;;;;;;0.20;0.20;;;;;;;;;;6159610;23;20089;-89
2021/08/06 07:02:22;;;;;;;0.17;0.17;;;;;;;;;;6160208;23;20093;-92
2021/08/06 07:04:48;;;;;;;0.20;0.20;;;;;;;;;;6159930;23;20020;-89
2021/08/06 07:07:14;;;;;;;0.10;0.10;;;;;;;;;;6159765;23;20009;-89
2021/08/06 07:09:40;;;;;;;0.10;0.10;;;;;;;;;;6159715;23;20009;-91
2021/08/06 07:12:06;;;;;;;0.10;0.10;;;;;;;;;;6159385;23;20013;-90
2021/08/06 07:14:32;;;;;;;0.20;0.20;;;;;;;;;;6159626;23;20009;-88
2021/08/06 07:16:59;;;;;;;0.17;0.17;;;;;;;;;;6157089;23;20017;-89
2021/08/06 07:19:25;;;;;;;0.10;0.10;;;;;;;;;;6160263;23;20009;-90
2021/08/06 07:21:51;;;;;;;0.20;0.20;;;;;;;;;;6158276;23;20020;-89
2021/08/06 07:24:18;;;;;;;0.10;0.10;;;;;;;;;;6159659;23;20334;-95
2021/08/06 07:26:46;;;;;;;0.10;0.10;;;;;;;;;;6134928;23;20028;-89
2021/08/06 07:29:12;;;;;;;0.10;0.10;;;;;;;;;;6159066;23;20012;-88
2021/08/06 07:31:42;;;;;;;0.10;0.10;;;;;;;;;;6134831;23;20017;-90
2021/08/06 07:34:08;;;;;;;0.10;0.10;;;;;;;;;;6161602;23;20076;-90
2021/08/06 07:36:34;;;;;;;0.10;0.10;;;;;;;;;;6188887;23;20100;-90
2021/08/06 07:39:00;;;;;;;0.10;0.10;;;;;;;;;;6188940;23;20092;-90
2021/08/06 07:41:26;;;;;;;0.17;0.17;;;;;;;;;;6189104;23;20142;-89
2021/08/06 07:43:52;;;;;;;0.10;0.10;;;;;;;;;;6163951;23;20393;-89
2021/08/06 07:46:19;;;;;;;0.10;0.10;;;;;;;;;;6188972;23;20039;-91
2021/08/06 07:48:45;;;;;;;0.10;0.10;;;;;;;;;;6188686;23;20020;-90
2021/08/06 07:51:11;;;;;;;0.10;0.10;;;;;;;;;;6189172;23;20438;-90
2021/08/06 07:53:37;;;;;;;0.10;0.10;;;;;;;;;;6214017;23;20031;-90
2021/08/06 07:56:04;;;;;;;0.10;0.10;;;;;;;;;;6213427;23;20135;-92
2021/08/06 07:58:30;;;;;;;0.10;0.10;;;;;;;;;;6189615;23;20031;-92
2021/08/06 08:00:56;;;;;;;0.10;0.10;;;;;;;;;;6189080;23;20451;-90
2021/08/06 08:03:22;;;;;;;0.20;0.20;;;;;;;;;;6188734;23;20015;-91
2021/08/06 08:05:48;;;;;;;0.20;0.20;;;;;;;;;;6188854;23;20058;-90
2021/08/06 08:08:14;;;;;;;0.10;0.10;;;;;;;;;;6188476;23;20013;-90
2021/08/06 08:10:40;;;;;;;0.10;0.10;;;;;;;;;;6188462;23;20024;-91
2021/08/06 08:13:06;;;;;;;0.10;0.10;;;;;;;;;;6191620;23;20008;-91
2021/08/06 08:15:32;;;;;;;0.10;0.10;;;;;;;;;;6187851;23;20355;-89
2021/08/06 08:17:58;;;;;;;0.10;0.10;;;;;;;;;;6188588;23;20028;-90
2021/08/06 08:20:24;;;;;;;0.10;0.10;;;;;;;;;;6163708;23;20339;-92
2021/08/06 08:22:50;;;;;;;0.20;0.20;;;;;;;;;;6189372;23;20505;-91
2021/08/06 08:25:16;;;;;;;0.17;0.17;;;;;;;;;;6189459;23;20008;-95
2021/08/06 08:27:42;;;;;;;0.20;0.20;;;;;;;;;;6164133;23;20035;-92
2021/08/06 08:30:08;;;;;;;0.20;0.20;;;;;;;;;;6188554;23;20469;-91
2021/08/06 08:32:35;;;;;;;0.10;0.10;;;;;;;;;;6188998;23;20013;-91
2021/08/06 08:35:01;;;;;;;0.10;0.10;;;;;;;;;;6189046;23;20091;-91
2021/08/06 08:37:27;;;;;;;0.10;0.10;;;;;;;;;;6188442;23;20017;-92
2021/08/06 08:39:53;;;;;;;0.17;0.17;;;;;;;;;;6188816;23;20019;-95
2021/08/06 08:42:21;;;;;;;0.10;0.10;;;;;;;;;;6188089;23;20019;-91
2021/08/06 08:44:47;;;;;;;0.10;0.10;;;;;;;;;;6188889;23;20430;-91
2021/08/06 08:47:24;;;;;;;0.10;0.10;;;;;;;;;;6188217;23;20442;-90
2021/08/06 08:49:51;;;;;;;0.10;0.10;;;;;;;;;;6213343;23;20012;-91
2021/08/06 08:52:17;;;;;;;0.10;0.10;;;;;;;;;;6188892;23;20012;-90
2021/08/06 08:54:44;;;;;;;0.20;0.20;;;;;;;;;;6188453;23;20013;-90
2021/08/06 08:57:13;;;;;;;0.10;0.10;;;;;;;;;;6188697;23;20013;-93
2021/08/06 08:59:39;;;;;;;0.22;0.22;;;;;;;;;;6187895;23;20019;-94
2021/08/06 09:02:09;;;;;;;0.10;0.10;;;;;;;;;;6188814;23;20008;-89
2021/08/06 09:04:35;;;;;;;0.10;0.10;;;;;;;;;;6188206;23;20017;-92
2021/08/06 09:07:01;;;;;;;0.10;0.10;;;;;;;;;;6163310;23;20013;-91
2021/08/06 09:09:28;;;;;;;0.45;0.20;;;;;;;;;;6163745;23;20016;-92
2021/08/06 09:12:04;;;;;;;0.10;0.10;;;;;;;;;;6165353;23;20467;-96
2021/08/06 09:14:31;;;;;;;0.10;0.10;;;;;;;;;;6189177;23;20008;-91
2021/08/06 09:17:17;;;;;;;0.10;0.10;;;;;;;;;;6188424;23;20013;-93
2021/08/06 09:19:43;;;;;;;0.10;0.10;;;;;;;;;;6163774;23;20021;-93
2021/08/06 09:22:17;;;;;;;0.20;0.20;;;;;;;;;;6188773;23;20087;-95
2021/08/06 09:25:02;;;;;;;0.10;0.10;;;;;;;;;;6214982;23;20090;-94
2021/08/06 09:27:28;;;;;;;0.13;0.13;;;;;;;;;;6187997;23;20016;-92
2021/08/06 09:29:56;;;;;;;0.30;0.30;;;;;;;;;;6189049;23;20454;-92
2021/08/06 09:32:24;;;;;;;0.17;0.17;;;;;;;;;;6188643;23;20088;-93
2021/08/06 09:34:52;;;;;;;0.20;0.20;;;;;;;;;;6189201;23;20017;-92
2021/08/06 09:37:22;;;;;;;0.15;0.15;;;;;;;;;;6189380;23;20021;-92
2021/08/06 09:39:52;;;;;;;0.10;0.10;;;;;;;;;;6188955;23;20040;-93
2021/08/06 09:42:24;;;;;;;0.20;0.20;;;;;;;;;;6213639;23;20401;-93
2021/08/06 09:45:04;;;;;;;0.10;0.10;;;;;;;;;;6188582;23;20008;-91
2021/08/06 09:47:34;;;;;;;0.10;0.10;;;;;;;;;;6188560;23;20082;-93
2021/08/06 09:50:01;;;;;;;0.20;0.20;;;;;;;;;;6188625;23;20111;-93
2021/08/06 09:52:31;;;;;;;0.10;0.10;;;;;;;;;;6163861;23;20013;-93
2021/08/06 09:54:57;;;;;;;0.10;0.10;;;;;;;;;;6189082;23;20031;-93
2021/08/06 09:57:23;;;;;;;0.10;0.10;;;;;;;;;;6188701;23;20083;-91
2021/08/06 09:59:54;;;;;;;0.10;0.10;;;;;;;;;;6188012;23;20473;-90
2021/08/06 10:02:21;;;;;;;0.10;0.10;;;;;;;;;;6190005;23;20088;-92
2021/08/06 10:05:01;;;;;;;0.10;0.10;;;;;;;;;;6160704;23;20012;-91
2021/08/06 10:07:28;;;;;;;0.10;0.10;;;;;;;;;;6188649;23;20036;-91
2021/08/06 10:09:54;;;;;;;0.10;0.10;;;;;;;;;;6163397;23;20012;-92
2021/08/06 10:12:20;;;;;;;0.10;0.10;;;;;;;;;;6163416;23;20017;-92
2021/08/06 10:14:46;;;;;;;0.10;0.10;;;;;;;;;;6163548;23;20009;-91
2021/08/06 10:17:12;;;;;;;0.10;0.10;;;;;;;;;;6188293;23;20012;-92
2021/08/06 10:19:39;;;;;;;0.10;0.10;;;;;;;;;;6165046;23;20071;-91
2021/08/06 10:22:05;;;;;;;0.10;0.10;;;;;;;;;;6215242;23;20012;-93
2021/08/06 10:24:31;;;;;;;0.10;0.10;;;;;;;;;;6190529;23;20131;-92
2021/08/06 10:26:58;;;;;;;0.10;0.10;;;;;;;;;;6190429;23;20339;-92
2021/08/06 10:29:26;;;;;;;0.10;0.10;;;;;;;;;;6191490;23;20397;-92
2021/08/06 10:32:11;;;;;;;0.10;0.10;;;;;;;;;;6215666;23;20063;-93
2021/08/06 10:34:58;;;;;;;0.10;0.10;;;;;;;;;;6190441;23;20039;-93
2021/08/06 10:37:42;;;;;;;0.20;0.20;;;;;;;;;;6189967;23;20025;-92
2021/08/06 10:40:11;;;;;;;0.20;0.20;;;;;;;;;;6215486;23;20036;-92
2021/08/06 10:42:37;;;;;;;0.10;0.10;;;;;;;;;;6190217;23;20019;-92
2021/08/06 10:45:04;;;;;;;0.10;0.10;;;;;;;;;;6191133;23;20024;-93
2021/08/06 10:47:48;;;;;;;0.30;0.30;;;;;;;;;;6190013;23;20013;-93
2021/08/06 10:50:15;;;;;;;0.38;0.38;;;;;;;;;;6190062;23;20019;-93
2021/08/06 10:52:41;;;;;;;0.10;0.10;;;;;;;;;;6190266;23;20271;-93
2021/08/06 10:55:17;;;;;;;0.10;0.10;;;;;;;;;;6189778;23;20016;-93
2021/08/06 10:57:43;;;;;;;0.20;0.20;;;;;;;;;;6164809;23;20047;-93
2021/08/06 11:00:10;;;;;;;0.10;0.10;;;;;;;;;;6164920;23;20021;-93
2021/08/06 11:02:39;;;;;;;0.20;0.20;;;;;;;;;;6189998;23;20044;-94
2021/08/06 11:05:24;;;;;;;0.10;0.10;;;;;;;;;;6190074;23;20008;-92
2021/08/06 11:07:51;;;;;;;0.10;0.10;;;;;;;;;;6215105;23;20044;-94
2021/08/06 11:10:50;;;;;;;0.20;0.20;;;;;;;;;;6190265;23;20389;-94
2021/08/06 11:13:31;;;;;;;0.10;0.10;;;;;;;;;;6145622;23;20092;-95
2021/08/06 11:16:09;;;;;;;0.10;0.10;;;;;;;;;;6219668;23;20642;-93
2021/08/06 11:18:35;;;;;;;0.10;0.10;;;;;;;;;;6189835;23;20139;-94
2021/08/06 11:21:01;;;;;;;0.10;0.10;;;;;;;;;;6165161;23;20119;-93
2021/08/06 11:23:27;;;;;;;0.10;0.10;;;;;;;;;;6190141;23;20050;-94
2021/08/06 11:25:53;;;;;;;0.20;0.20;;;;;;;;;;6165416;23;20015;-93
2021/08/06 11:28:25;;;;;;;0.10;0.10;;;;;;;;;;6189793;23;20466;-92
2021/08/06 11:30:51;;;;;;;;;;;;;;;;;;6190220;23;20016;-92
2021/08/06 11:33:17;;;;;;;0.10;0.10;;;;;;;;;;6189639;23;20242;-92
2021/08/06 11:35:44;;;;;;;0.10;0.10;;;;;;;;;;6189553;23;20017;-92
2021/08/06 11:38:11;;;;;;;0.10;0.10;;;;;;;;;;6190816;23;20029;-94
2021/08/06 11:40:44;;;;;;;0.10;0.10;;;;;;;;;;6201259;23;20012;-92
2021/08/06 11:43:11;;;;;;;0.10;0.10;;;;;;;;;;6164757;23;20031;-93
2021/08/06 11:45:37;;;;;;;0.10;0.10;;;;;;;;;;6214818;23;20051;-92
2021/08/06 11:48:04;;;;;;;0.10;0.10;;;;;;;;;;6190740;23;20017;-93
2021/08/06 11:50:45;;;;;;;0.10;0.10;;;;;;;;;;6190276;23;20008;-93
2021/08/06 11:53:19;;;;;;;0.20;0.20;;;;;;;;;;6214565;23;20091;-92
2021/08/06 11:55:46;;;;;;;0.40;0.40;;;;;;;;;;6189831;23;20019;-93
2021/08/06 11:58:12;;;;;;;0.20;0.20;;;;;;;;;;6192484;23;20087;-91
2021/08/06 12:00:44;;;;;;;0.20;0.20;;;;;;;;;;6191248;23;20453;-91
2021/08/06 12:03:17;;;;;;;0.10;0.10;;;;;;;;;;6190242;23;20078;-90
2021/08/06 12:05:47;;;;;;;0.20;0.20;;;;;;;;;;6166729;23;20016;-89
2021/08/06 12:08:20;;;;;;;0.10;0.10;;;;;;;;;;6189763;23;20469;-90
2021/08/06 12:10:47;;;;;;;0.25;0.25;;;;;;;;;;6191930;23;20016;-93
2021/08/06 12:13:14;;;;;;;0.13;0.13;;;;;;;;;;6189898;23;20012;-91
2021/08/06 12:15:40;;;;;;;0.10;0.10;;;;;;;;;;6164210;23;20346;-91
2021/08/06 12:18:19;;;;;;;0.10;0.10;;;;;;;;;;6190123;23;20040;-90
2021/08/06 12:21:00;;;;;;;0.10;0.10;;;;;;;;;;6190034;23;20320;-91
2021/08/06 12:23:26;;;;;;;0.25;0.25;;;;;;;;;;6189407;23;20032;-90
2021/08/06 12:26:21;;;;;;;0.10;0.10;;;;;;;;;;6190090;23;20390;-90
2021/08/06 12:29:09;;;;;;;0.10;0.10;;;;;;;;;;6190076;23;20047;-91
2021/08/06 12:31:35;;;;;;;0.10;0.10;;;;;;;;;;6196600;23;20016;-91
2021/08/06 12:34:08;;;;;;;0.40;0.40;;;;;;;;;;6188513;23;20013;-90
2021/08/06 12:36:35;;;;;;;0.10;0.10;;;;;;;;;;6198145;23;20040;-90
2021/08/06 12:39:10;;;;;;;0.10;0.10;;;;;;;;;;6188793;23;20013;-90
2021/08/06 12:41:45;;;;;;;0.20;0.20;;;;;;;;;;6223055;23;20017;-90
2021/08/06 12:44:12;;;;;;;0.10;0.10;;;;;;;;;;6188398;23;20019;-90
2021/08/06 12:46:38;;;;;;;0.77;0.40;;;;;;;;;;6188369;23;20020;-90
2021/08/06 12:49:10;;;;;;;0.20;0.20;;;;;;;;;;6188641;23;20013;-90
2021/08/06 12:51:37;;;;;;;0.15;0.15;;;;;;;;;;6188433;23;20130;-91
2021/08/06 12:54:03;;;;;;;0.17;0.17;;;;;;;;;;6189007;23;20019;-90
2021/08/06 12:56:29;;;;;;;0.20;0.20;;;;;;;;;;6189634;23;20074;-90
2021/08/06 12:59:14;;;;;;;0.10;0.10;;;;;;;;;;6215105;23;20316;-94
2021/08/06 13:01:40;;;;;;;0.30;0.30;;;;;;;;;;6215011;23;20008;-89
2021/08/06 13:04:06;;;;;;;0.20;0.20;;;;;;;;;;6188334;23;20435;-89
2021/08/06 13:06:45;;;;;;;0.10;0.10;;;;;;;;;;6188048;23;20473;-89
2021/08/06 13:09:11;;;;;;;0.20;0.20;;;;;;;;;;6212783;23;20048;-88
2021/08/06 13:11:37;;;;;;;0.10;0.10;;;;;;;;;;6188490;23;20013;-90
2021/08/06 13:14:06;;;;;;;0.15;0.15;;;;;;;;;;6189184;23;20091;-91
2021/08/06 13:16:32;;;;;;;0.17;0.17;;;;;;;;;;6213420;23;20012;-90
2021/08/06 13:18:58;;;;;;;0.10;0.10;;;;;;;;;;6189216;23;20012;-93
2021/08/06 13:21:24;;;;;;;0.10;0.10;;;;;;;;;;6215674;23;20009;-94
2021/08/06 13:23:50;;;;;;;0.10;0.10;;;;;;;;;;6189828;23;20136;-91
2021/08/06 13:26:16;;;;;;;0.20;0.20;;;;;;;;;;6190386;23;20008;-92
2021/08/06 13:28:42;;;;;;;0.30;0.30;;;;;;;;;;6188333;23;20013;-89
2021/08/06 13:31:09;;;;;;;0.20;0.20;;;;;;;;;;6187897;23;20016;-89
2021/08/06 13:33:35;;;;;;;0.10;0.10;;;;;;;;;;6188281;23;20012;-89
2021/08/06 13:36:01;;;;;;;0.35;0.35;;;;;;;;;;6214655;23;20017;-89
2021/08/06 13:38:27;;;;;;;0.43;0.43;;;;;;;;;;6188002;23;20039;-90
2021/08/06 13:40:53;;;;;;;0.20;0.20;;;;;;;;;;6188095;23;20438;-91
2021/08/06 13:43:26;;;;;;;0.10;0.10;;;;;;;;;;6199461;23;20070;-89
2021/08/06 13:45:52;;;;;;;0.10;0.10;;;;;;;;;;6188193;23;20070;-90
2021/08/06 13:48:20;;;;;;;0.20;0.20;;;;;;;;;;6187625;23;20370;-88
2021/08/06 13:50:46;;;;;;;0.10;0.10;;;;;;;;;;6188115;23;20016;-90
2021/08/06 13:53:12;;;;;;;0.20;0.20;;;;;;;;;;6188706;23;20013;-90
2021/08/06 13:55:38;;;;;;;0.20;0.20;;;;;;;;;;6190029;23;20017;-89
2021/08/06 13:58:05;;;;;;;0.20;0.20;;;;;;;;;;6189877;23;20013;-89
2021/08/06 14:00:31;;;;;;;0.10;0.10;;;;;;;;;;6216472;23;20008;-89
2021/08/06 14:02:57;;;;;;;0.20;0.20;;;;;;;;;;6189803;23;20083;-90
2021/08/06 14:05:23;;;;;;;0.10;0.10;;;;;;;;;;6189697;23;20012;-89
2021/08/06 14:07:49;;;;;;;0.20;0.20;;;;;;;;;;6190001;23;20044;-89
2021/08/06 14:10:15;;;;;;;0.20;0.20;;;;;;;;;;6190059;23;20012;-88
2021/08/06 14:12:41;;;;;;;0.10;0.10;;;;;;;;;;6189884;23;20529;-88
2021/08/06 14:15:07;;;;;;;0.15;0.15;;;;;;;;;;6186624;23;20501;-87
2021/08/06 14:17:33;;;;;;;0.10;0.10;;;;;;;;;;6189466;23;20008;-88
2021/08/06 14:20:00;;;;;;;0.10;0.10;;;;;;;;;;6189691;23;20023;-88
2021/08/06 14:22:26;;;;;;;0.10;0.10;;;;;;;;;;6214041;23;20017;-88
2021/08/06 14:24:52;;;;;;;0.10;0.10;;;;;;;;;;6189440;23;20066;-87
2021/08/06 14:27:18;;;;;;;0.20;0.20;;;;;;;;;;6190515;23;20013;-88
2021/08/06 14:29:45;;;;;;;0.10;0.10;;;;;;;;;;6190716;23;20009;-89
2021/08/06 14:32:12;;;;;;;0.20;0.20;;;;;;;;;;6189408;23;20439;-89
2021/08/06 14:34:38;;;;;;;0.10;0.10;;;;;;;;;;6189666;23;20021;-88
2021/08/06 14:37:04;;;;;;;0.10;0.10;;;;;;;;;;6189567;23;20083;-88
2021/08/06 14:39:30;;;;;;;0.10;0.10;;;;;;;;;;6164939;23;20047;-88
2021/08/06 14:41:56;;;;;;;0.10;0.10;;;;;;;;;;6189616;23;20019;-88
2021/08/06 14:44:24;;;;;;;0.20;0.20;;;;;;;;;;6189619;23;20024;-87
2021/08/06 14:46:50;;;;;;;0.20;0.20;;;;;;;;;;6189388;23;20008;-88